Time;durP1;ratioP1;P1;durP2;ratioP2;P2;SDS_P1;SDS_P2;PMS_P1;PMS_P2;Temp;Humidity;BMP_temperature;BMP_pressure;BME280_temperature;BME280_humidity;BME280_pressure;Samples;Min_cycle;Max_cycle;Signal;HPM_P1;HPM_P2
2023/07/27 00:00:21;;;;;;;9.77;3.92;;;;;;;;;;4971102;28;100190;-73
2023/07/27 00:02:48;;;;;;;8.35;4.38;;;;;;;;;;4987770;28;100272;-73
2023/07/27 00:05:14;;;;;;;6.85;4.10;;;;;;;;;;4969471;28;100495;-73
2023/07/27 00:07:41;;;;;;;7.95;4.35;;;;;;;;;;4990211;28;99088;-73
2023/07/27 00:10:07;;;;;;;8.13;4.47;;;;;;;;;;4988205;28;98487;-74
2023/07/27 00:12:33;;;;;;;9.93;5.13;;;;;;;;;;4989423;28;99492;-72
2023/07/27 00:15:00;;;;;;;11.15;5.10;;;;;;;;;;4986015;28;99531;-73
2023/07/27 00:17:26;;;;;;;7.15;4.72;;;;;;;;;;4970863;28;98726;-73
2023/07/27 00:19:53;;;;;;;12.77;5.13;;;;;;;;;;4987143;28;100184;-73
2023/07/27 00:22:19;;;;;;;10.70;5.00;;;;;;;;;;4985879;28;100360;-73
2023/07/27 00:24:45;;;;;;;6.57;4.82;;;;;;;;;;4985876;28;99291;-72
2023/07/27 00:27:12;;;;;;;9.52;5.68;;;;;;;;;;4992567;28;99167;-72
2023/07/27 00:29:38;;;;;;;7.50;5.35;;;;;;;;;;4988005;28;98578;-71
2023/07/27 00:32:05;;;;;;;7.20;5.43;;;;;;;;;;4983122;28;99177;-72
2023/07/27 00:34:31;;;;;;;7.10;4.57;;;;;;;;;;4983022;28;99719;-71
2023/07/27 00:36:58;;;;;;;7.28;5.57;;;;;;;;;;4975821;28;98459;-71
2023/07/27 00:39:24;;;;;;;7.65;4.70;;;;;;;;;;4987096;28;98644;-71
2023/07/27 00:41:50;;;;;;;6.38;4.68;;;;;;;;;;4987298;28;99521;-73
2023/07/27 00:44:17;;;;;;;8.07;5.07;;;;;;;;;;4987230;28;99302;-72
2023/07/27 00:46:43;;;;;;;8.80;4.75;;;;;;;;;;4989223;28;99861;-72
2023/07/27 00:49:10;;;;;;;7.03;4.72;;;;;;;;;;4992989;28;99655;-74
2023/07/27 00:51:38;;;;;;;7.80;4.40;;;;;;;;;;4974324;28;99103;-73
2023/07/27 00:54:06;;;;;;;6.03;4.70;;;;;;;;;;4990541;28;99474;-73
2023/07/27 00:56:32;;;;;;;7.80;4.50;;;;;;;;;;4991679;28;98584;-73
2023/07/27 00:58:59;;;;;;;6.70;4.03;;;;;;;;;;4990610;28;99843;-73
2023/07/27 01:01:26;;;;;;;8.25;4.07;;;;;;;;;;4991437;28;98760;-73
2023/07/27 01:03:53;;;;;;;6.80;4.85;;;;;;;;;;4991859;28;98581;-73
2023/07/27 01:06:19;;;;;;;7.03;4.68;;;;;;;;;;4992034;28;99186;-73
2023/07/27 01:08:46;;;;;;;6.57;4.15;;;;;;;;;;4988681;28;100263;-73
2023/07/27 01:11:18;;;;;;;7.22;4.78;;;;;;;;;;4994874;28;98517;-73
2023/07/27 01:13:56;;;;;;;7.22;4.13;;;;;;;;;;4990306;28;99385;-73
2023/07/27 01:16:25;;;;;;;6.13;4.30;;;;;;;;;;4992097;28;100408;-73
2023/07/27 01:18:55;;;;;;;8.45;4.32;;;;;;;;;;4990444;28;99201;-73
2023/07/27 01:21:26;;;;;;;5.95;4.32;;;;;;;;;;4990180;28;99495;-72
2023/07/27 01:24:04;;;;;;;10.52;4.60;;;;;;;;;;4990648;28;99346;-72
2023/07/27 01:26:50;;;;;;;6.97;4.40;;;;;;;;;;4991234;28;99373;-72
2023/07/27 01:29:44;;;;;;;14.10;4.97;;;;;;;;;;4989832;28;99506;-73
2023/07/27 01:32:10;;;;;;;8.80;4.53;;;;;;;;;;4991519;28;98599;-73
2023/07/27 01:34:40;;;;;;;11.95;5.18;;;;;;;;;;4994329;28;102622;-74
2023/07/27 01:37:08;;;;;;;6.25;4.43;;;;;;;;;;4990251;28;98678;-72
2023/07/27 01:39:38;;;;;;;8.05;5.28;;;;;;;;;;4972355;28;99233;-73
2023/07/27 01:42:04;;;;;;;6.60;4.10;;;;;;;;;;4972762;28;100882;-72
2023/07/27 01:44:32;;;;;;;7.43;4.45;;;;;;;;;;4989060;28;98768;-72
2023/07/27 01:46:59;;;;;;;5.93;4.20;;;;;;;;;;4990736;28;98960;-73
2023/07/27 01:49:27;;;;;;;6.43;4.05;;;;;;;;;;4989899;28;99555;-73
2023/07/27 01:51:54;;;;;;;7.22;4.65;;;;;;;;;;4990257;28;97782;-74
2023/07/27 01:54:20;;;;;;;6.80;4.60;;;;;;;;;;4991412;28;101386;-74
2023/07/27 01:56:47;;;;;;;6.72;4.50;;;;;;;;;;4993603;28;99808;-74
2023/07/27 01:59:13;;;;;;;6.82;4.57;;;;;;;;;;4989583;28;100721;-74
2023/07/27 02:01:42;;;;;;;6.63;4.38;;;;;;;;;;4990244;28;99126;-74
2023/07/27 02:04:10;;;;;;;6.10;3.97;;;;;;;;;;4990052;28;98546;-74
2023/07/27 02:06:36;;;;;;;11.95;4.10;;;;;;;;;;4991253;28;100796;-74
2023/07/27 02:09:03;;;;;;;5.60;4.38;;;;;;;;;;4990283;28;102711;-74
2023/07/27 02:11:29;;;;;;;4.13;3.35;;;;;;;;;;4984322;28;98545;-73
2023/07/27 02:14:00;;;;;;;6.43;3.53;;;;;;;;;;4982793;28;99817;-78
2023/07/27 02:16:43;;;;;;;15.60;4.13;;;;;;;;;;4987863;28;98760;-77
2023/07/27 02:19:12;;;;;;;6.07;3.28;;;;;;;;;;4993880;28;98546;-75
2023/07/27 02:21:38;;;;;;;7.28;3.58;;;;;;;;;;4988464;28;99819;-76
2023/07/27 02:24:05;;;;;;;6.20;3.28;;;;;;;;;;4970241;28;99558;-75
2023/07/27 02:26:32;;;;;;;4.88;2.97;;;;;;;;;;4971428;28;103194;-75
2023/07/27 02:28:58;;;;;;;4.38;3.28;;;;;;;;;;4990346;28;99516;-75
2023/07/27 02:31:25;;;;;;;4.05;3.08;;;;;;;;;;4990700;28;98532;-73
2023/07/27 02:33:51;;;;;;;5.13;3.20;;;;;;;;;;4987124;28;99420;-73
2023/07/27 02:36:17;;;;;;;5.70;3.20;;;;;;;;;;4989994;28;100177;-72
2023/07/27 02:38:44;;;;;;;8.75;4.20;;;;;;;;;;4995233;28;98551;-72
2023/07/27 02:41:10;;;;;;;4.90;3.80;;;;;;;;;;4991825;28;99735;-72
2023/07/27 02:43:37;;;;;;;6.45;3.88;;;;;;;;;;4989204;28;98581;-72
2023/07/27 02:46:05;;;;;;;11.00;4.22;;;;;;;;;;4985692;28;99305;-74
2023/07/27 02:48:31;;;;;;;10.10;4.05;;;;;;;;;;4988870;28;100366;-73
2023/07/27 02:50:58;;;;;;;8.10;4.20;;;;;;;;;;4990636;28;99567;-72
2023/07/27 02:53:24;;;;;;;8.10;4.07;;;;;;;;;;4991544;28;100157;-73
2023/07/27 02:55:57;;;;;;;7.07;4.32;;;;;;;;;;4988910;28;99758;-72
2023/07/27 02:58:23;;;;;;;7.63;4.03;;;;;;;;;;4991156;28;99650;-72
2023/07/27 03:01:08;;;;;;;6.75;4.38;;;;;;;;;;4990636;28;99143;-73
2023/07/27 03:03:34;;;;;;;6.15;3.70;;;;;;;;;;4987748;28;98902;-73
2023/07/27 03:06:01;;;;;;;9.27;3.80;;;;;;;;;;4989314;28;99162;-72
2023/07/27 03:08:29;;;;;;;4.75;3.42;;;;;;;;;;4988292;28;99440;-73
2023/07/27 03:11:02;;;;;;;4.72;3.75;;;;;;;;;;4988473;28;98950;-72
2023/07/27 03:13:29;;;;;;;3.53;3.17;;;;;;;;;;4962303;28;99421;-72
2023/07/27 03:15:56;;;;;;;5.30;3.40;;;;;;;;;;4988031;28;100835;-73
2023/07/27 03:18:22;;;;;;;3.22;2.90;;;;;;;;;;4989623;28;98799;-73
2023/07/27 03:20:48;;;;;;;5.75;3.13;;;;;;;;;;4990357;28;100297;-74
2023/07/27 03:23:15;;;;;;;6.57;3.38;;;;;;;;;;4991155;28;99484;-72
2023/07/27 03:25:41;;;;;;;5.55;3.22;;;;;;;;;;4987870;28;99138;-72
2023/07/27 03:28:07;;;;;;;6.38;3.53;;;;;;;;;;4987362;28;99488;-72
2023/07/27 03:30:35;;;;;;;5.75;3.65;;;;;;;;;;4988264;28;98120;-72
2023/07/27 03:33:02;;;;;;;4.93;3.70;;;;;;;;;;4989308;28;99983;-72
2023/07/27 03:35:28;;;;;;;5.63;3.70;;;;;;;;;;4985818;28;100704;-72
2023/07/27 03:37:55;;;;;;;5.43;3.97;;;;;;;;;;4986703;28;99301;-72
2023/07/27 03:40:21;;;;;;;5.57;4.15;;;;;;;;;;4990390;28;100914;-72
2023/07/27 03:42:47;;;;;;;7.45;3.85;;;;;;;;;;4987553;28;99564;-72
2023/07/27 03:45:17;;;;;;;4.78;4.20;;;;;;;;;;4985503;28;98498;-72
2023/07/27 03:47:44;;;;;;;7.47;4.47;;;;;;;;;;4988123;28;99507;-72
2023/07/27 03:50:12;;;;;;;6.75;5.00;;;;;;;;;;4988854;28;98630;-72
2023/07/27 03:52:38;;;;;;;6.70;5.47;;;;;;;;;;4986237;28;99211;-72
2023/07/27 03:55:05;;;;;;;10.73;6.47;;;;;;;;;;4986755;28;98813;-72
2023/07/27 03:57:31;;;;;;;10.93;7.43;;;;;;;;;;4986944;28;99876;-72
2023/07/27 03:59:59;;;;;;;13.77;8.43;;;;;;;;;;4988976;28;99161;-73
2023/07/27 04:02:26;;;;;;;12.90;8.95;;;;;;;;;;4986187;28;104480;-74
2023/07/27 04:04:53;;;;;;;15.38;10.32;;;;;;;;;;4985735;28;98853;-73
2023/07/27 04:07:20;;;;;;;15.10;10.50;;;;;;;;;;4988905;28;99045;-73
2023/07/27 04:09:46;;;;;;;16.63;10.48;;;;;;;;;;4988055;28;98525;-74
2023/07/27 04:12:13;;;;;;;18.48;10.70;;;;;;;;;;4987885;28;99319;-72
2023/07/27 04:14:39;;;;;;;19.00;11.25;;;;;;;;;;4985956;28;99516;-72
2023/07/27 04:17:05;;;;;;;19.58;12.40;;;;;;;;;;4987102;28;100585;-71
2023/07/27 04:19:34;;;;;;;22.85;12.43;;;;;;;;;;4988429;28;99240;-72
2023/07/27 04:22:00;;;;;;;20.85;12.20;;;;;;;;;;4987435;28;102398;-71
2023/07/27 04:24:26;;;;;;;20.92;12.57;;;;;;;;;;4987002;28;98699;-71
2023/07/27 04:26:53;;;;;;;22.33;13.43;;;;;;;;;;4986129;28;100612;-71
2023/07/27 04:29:19;;;;;;;24.50;13.32;;;;;;;;;;4991667;28;100663;-72
2023/07/27 04:31:46;;;;;;;20.00;13.23;;;;;;;;;;4987796;28;99229;-72
2023/07/27 04:34:12;;;;;;;18.92;12.68;;;;;;;;;;4968956;28;99548;-72
2023/07/27 04:36:38;;;;;;;19.90;12.93;;;;;;;;;;4989249;28;98615;-73
2023/07/27 04:39:05;;;;;;;18.05;12.13;;;;;;;;;;4988118;28;99232;-72
2023/07/27 04:41:31;;;;;;;21.25;11.02;;;;;;;;;;4987606;28;99503;-71
2023/07/27 04:43:58;;;;;;;18.02;10.65;;;;;;;;;;4984530;28;97851;-72
2023/07/27 04:46:24;;;;;;;18.02;10.52;;;;;;;;;;4980536;28;98553;-72
2023/07/27 04:48:50;;;;;;;15.95;9.98;;;;;;;;;;4990060;28;100430;-72
2023/07/27 04:51:17;;;;;;;18.48;10.20;;;;;;;;;;4985813;28;99298;-71
2023/07/27 04:53:43;;;;;;;16.02;9.63;;;;;;;;;;4987478;28;99611;-71
2023/07/27 04:56:09;;;;;;;17.55;10.05;;;;;;;;;;4987446;28;98799;-71
2023/07/27 04:58:36;;;;;;;15.23;9.27;;;;;;;;;;4986973;28;101793;-71
2023/07/27 05:01:02;;;;;;;14.63;9.40;;;;;;;;;;4985492;28;99619;-72
2023/07/27 05:03:28;;;;;;;17.02;8.90;;;;;;;;;;4988905;28;98899;-71
2023/07/27 05:05:55;;;;;;;14.27;8.65;;;;;;;;;;4982611;28;99930;-70
2023/07/27 05:08:21;;;;;;;15.20;8.65;;;;;;;;;;4986075;28;98767;-70
2023/07/27 05:10:47;;;;;;;10.35;7.93;;;;;;;;;;4989348;28;98977;-70
2023/07/27 05:13:14;;;;;;;12.75;8.38;;;;;;;;;;4985636;28;100696;-70
2023/07/27 05:15:41;;;;;;;11.52;7.72;;;;;;;;;;4986783;28;99299;-71
2023/07/27 05:18:07;;;;;;;10.57;7.97;;;;;;;;;;4987043;28;99970;-71
2023/07/27 05:20:34;;;;;;;13.20;8.15;;;;;;;;;;4985628;28;99924;-72
2023/07/27 05:23:00;;;;;;;12.60;7.60;;;;;;;;;;4970475;28;98690;-71
2023/07/27 05:25:27;;;;;;;11.63;7.65;;;;;;;;;;4985134;28;99455;-71
2023/07/27 05:27:53;;;;;;;8.68;7.25;;;;;;;;;;4985413;28;99574;-72
2023/07/27 05:30:20;;;;;;;10.60;6.85;;;;;;;;;;4984424;28;98999;-72
2023/07/27 05:32:46;;;;;;;9.02;6.50;;;;;;;;;;4990367;28;99198;-71
2023/07/27 05:35:12;;;;;;;10.00;6.47;;;;;;;;;;4970021;28;98874;-71
2023/07/27 05:37:40;;;;;;;7.55;5.82;;;;;;;;;;4971191;28;99775;-71
2023/07/27 05:40:09;;;;;;;7.75;5.32;;;;;;;;;;4989136;28;100183;-71
2023/07/27 05:42:35;;;;;;;6.80;5.28;;;;;;;;;;4972203;28;98692;-71
2023/07/27 05:45:01;;;;;;;9.85;5.93;;;;;;;;;;4990606;28;100356;-71
2023/07/27 05:47:28;;;;;;;6.80;5.20;;;;;;;;;;4992284;28;100812;-71
2023/07/27 05:49:55;;;;;;;6.05;5.43;;;;;;;;;;4988358;28;98683;-71
2023/07/27 05:52:21;;;;;;;6.53;4.72;;;;;;;;;;4973159;28;100468;-70
2023/07/27 05:54:48;;;;;;;5.90;4.32;;;;;;;;;;4992855;28;100383;-71
2023/07/27 05:57:14;;;;;;;6.78;4.85;;;;;;;;;;4991580;28;100358;-71
2023/07/27 05:59:40;;;;;;;9.00;5.28;;;;;;;;;;4988109;28;100498;-71
2023/07/27 06:02:17;;;;;;;5.80;4.57;;;;;;;;;;4973631;28;98617;-71
2023/07/27 06:04:44;;;;;;;6.82;4.80;;;;;;;;;;4989512;28;99445;-71
2023/07/27 06:07:10;;;;;;;7.90;5.05;;;;;;;;;;4987967;28;99442;-71
2023/07/27 06:09:37;;;;;;;11.13;5.18;;;;;;;;;;4988980;28;99011;-71
2023/07/27 06:12:11;;;;;;;9.52;5.03;;;;;;;;;;4991223;28;99178;-71
2023/07/27 06:14:39;;;;;;;5.00;4.47;;;;;;;;;;4987289;28;100631;-71
2023/07/27 06:17:05;;;;;;;5.35;4.07;;;;;;;;;;4992194;28;98606;-72
2023/07/27 06:19:32;;;;;;;7.85;4.05;;;;;;;;;;4988889;28;100672;-72
2023/07/27 06:21:58;;;;;;;7.93;4.05;;;;;;;;;;4989252;28;98815;-72
2023/07/27 06:24:24;;;;;;;6.47;4.35;;;;;;;;;;4989296;28;98667;-72
2023/07/27 06:26:51;;;;;;;5.25;4.20;;;;;;;;;;4989836;28;99570;-72
2023/07/27 06:29:17;;;;;;;4.35;3.97;;;;;;;;;;4989521;28;99234;-73
2023/07/27 06:31:44;;;;;;;4.30;3.90;;;;;;;;;;4984065;28;99876;-73
2023/07/27 06:34:11;;;;;;;4.45;3.58;;;;;;;;;;4980710;28;99821;-73
2023/07/27 06:36:37;;;;;;;4.88;4.03;;;;;;;;;;4990850;28;98859;-72
2023/07/27 06:39:05;;;;;;;4.13;3.72;;;;;;;;;;4993401;28;99096;-73
2023/07/27 06:41:31;;;;;;;4.50;4.03;;;;;;;;;;4991376;28;98494;-73
2023/07/27 06:43:57;;;;;;;3.45;3.15;;;;;;;;;;4985778;28;99196;-73
2023/07/27 06:46:24;;;;;;;5.13;3.80;;;;;;;;;;4990081;28;101460;-73
2023/07/27 06:48:51;;;;;;;4.47;3.40;;;;;;;;;;4991570;28;98877;-73
2023/07/27 06:51:18;;;;;;;5.45;3.70;;;;;;;;;;4989308;28;100228;-73
2023/07/27 06:53:44;;;;;;;3.15;2.88;;;;;;;;;;4987983;28;100205;-72
2023/07/27 06:56:14;;;;;;;3.40;3.10;;;;;;;;;;4989029;28;98622;-73
2023/07/27 06:58:40;;;;;;;4.85;3.30;;;;;;;;;;4994150;28;100486;-73
2023/07/27 07:01:06;;;;;;;4.53;3.53;;;;;;;;;;4990469;28;98636;-73
2023/07/27 07:03:33;;;;;;;3.45;3.20;;;;;;;;;;4991364;28;100538;-76
2023/07/27 07:05:59;;;;;;;3.53;2.95;;;;;;;;;;4989937;28;99578;-76
2023/07/27 07:08:26;;;;;;;3.58;2.90;;;;;;;;;;4956180;28;98705;-77
2023/07/27 07:10:52;;;;;;;3.25;2.92;;;;;;;;;;4990962;28;99955;-77
2023/07/27 07:13:19;;;;;;;3.08;2.75;;;;;;;;;;4989025;28;99480;-79
2023/07/27 07:15:45;;;;;;;2.83;2.63;;;;;;;;;;4969972;28;99849;-74
2023/07/27 07:18:12;;;;;;;5.22;3.10;;;;;;;;;;4984871;28;99320;-74
2023/07/27 07:20:38;;;;;;;4.25;3.03;;;;;;;;;;4990611;28;99783;-74
2023/07/27 07:23:05;;;;;;;3.45;3.05;;;;;;;;;;4990506;28;99184;-74
2023/07/27 07:25:31;;;;;;;3.83;3.40;;;;;;;;;;4988813;28;99609;-74
2023/07/27 07:27:57;;;;;;;6.47;3.50;;;;;;;;;;4989806;28;100113;-74
2023/07/27 07:30:24;;;;;;;4.43;3.60;;;;;;;;;;4988445;28;99127;-74
2023/07/27 07:32:50;;;;;;;3.97;3.53;;;;;;;;;;4971628;28;99477;-74
2023/07/27 07:35:18;;;;;;;3.38;3.05;;;;;;;;;;4988777;28;97868;-73
2023/07/27 07:37:44;;;;;;;4.75;3.60;;;;;;;;;;4990228;28;98535;-74
2023/07/27 07:40:11;;;;;;;3.80;3.50;;;;;;;;;;4971279;28;99484;-75
2023/07/27 07:42:37;;;;;;;4.07;3.70;;;;;;;;;;4991811;28;99755;-74
2023/07/27 07:45:04;;;;;;;3.75;3.45;;;;;;;;;;4987008;28;99997;-74
2023/07/27 07:47:30;;;;;;;3.53;3.28;;;;;;;;;;4990570;28;98489;-74
2023/07/27 07:49:58;;;;;;;5.50;3.58;;;;;;;;;;4989530;28;99576;-73
2023/07/27 07:52:24;;;;;;;3.08;2.88;;;;;;;;;;4990060;28;100572;-74
2023/07/27 07:54:51;;;;;;;3.30;3.00;;;;;;;;;;4987370;28;98517;-74
2023/07/27 07:57:19;;;;;;;3.50;3.20;;;;;;;;;;4989363;28;99516;-74
2023/07/27 07:59:46;;;;;;;2.90;2.70;;;;;;;;;;4971675;28;98738;-74
2023/07/27 08:02:12;;;;;;;4.93;3.13;;;;;;;;;;4989832;28;98700;-74
2023/07/27 08:04:39;;;;;;;2.83;2.63;;;;;;;;;;4990983;28;99080;-74
2023/07/27 08:07:05;;;;;;;3.78;2.83;;;;;;;;;;4988919;28;99291;-74
2023/07/27 08:09:32;;;;;;;2.78;2.58;;;;;;;;;;4969932;28;99830;-73
2023/07/27 08:11:58;;;;;;;2.78;2.42;;;;;;;;;;4987273;28;99477;-74
2023/07/27 08:14:24;;;;;;;2.35;2.08;;;;;;;;;;4959511;28;98669;-74
2023/07/27 08:16:51;;;;;;;2.22;2.13;;;;;;;;;;4948481;28;99121;-74
2023/07/27 08:19:17;;;;;;;2.00;1.90;;;;;;;;;;4946145;28;99784;-74
2023/07/27 08:21:44;;;;;;;1.75;1.65;;;;;;;;;;4946059;28;98644;-74
2023/07/27 08:24:10;;;;;;;1.40;1.30;;;;;;;;;;4949372;28;99148;-73
2023/07/27 08:26:36;;;;;;;3.60;1.80;;;;;;;;;;4949144;28;99487;-74
2023/07/27 08:29:03;;;;;;;1.73;1.63;;;;;;;;;;4950301;28;99109;-75
2023/07/27 08:31:29;;;;;;;1.70;1.60;;;;;;;;;;4949518;28;100233;-74
2023/07/27 08:33:56;;;;;;;1.70;1.60;;;;;;;;;;4949187;28;98641;-74
2023/07/27 08:36:22;;;;;;;1.77;1.67;;;;;;;;;;4947360;28;99470;-73
2023/07/27 08:38:48;;;;;;;1.50;1.40;;;;;;;;;;4930477;28;99511;-73
2023/07/27 08:41:15;;;;;;;3.08;1.33;;;;;;;;;;4938450;28;98804;-73
2023/07/27 08:43:41;;;;;;;1.25;1.15;;;;;;;;;;4950003;28;99419;-73
2023/07/27 08:46:08;;;;;;;2.15;1.67;;;;;;;;;;4944519;28;99499;-72
2023/07/27 08:48:34;;;;;;;4.47;1.58;;;;;;;;;;4953749;28;97886;-73
2023/07/27 08:51:01;;;;;;;4.50;1.48;;;;;;;;;;4949554;28;99476;-73
2023/07/27 08:53:27;;;;;;;1.58;1.48;;;;;;;;;;4949313;28;98651;-73
2023/07/27 08:55:54;;;;;;;2.13;1.60;;;;;;;;;;4948933;28;99798;-73
2023/07/27 08:58:21;;;;;;;1.60;1.50;;;;;;;;;;4949801;28;99799;-74
2023/07/27 09:00:48;;;;;;;1.60;1.45;;;;;;;;;;4947985;28;98652;-72
2023/07/27 09:03:14;;;;;;;2.08;1.42;;;;;;;;;;4949969;28;99100;-73
2023/07/27 09:05:42;;;;;;;2.25;1.40;;;;;;;;;;4948626;28;99564;-73
2023/07/27 09:08:09;;;;;;;1.40;1.30;;;;;;;;;;4952419;28;98568;-72
2023/07/27 09:10:37;;;;;;;2.35;1.30;;;;;;;;;;4950502;28;99549;-72
2023/07/27 09:13:03;;;;;;;1.45;1.45;;;;;;;;;;4953915;28;97761;-74
2023/07/27 09:15:30;;;;;;;1.50;1.40;;;;;;;;;;4950165;28;99486;-74
2023/07/27 09:17:58;;;;;;;1.75;1.42;;;;;;;;;;4952637;28;99518;-74
2023/07/27 09:20:25;;;;;;;2.03;1.30;;;;;;;;;;4949256;28;99346;-74
2023/07/27 09:22:51;;;;;;;1.23;1.10;;;;;;;;;;4952510;28;99937;-74
2023/07/27 09:25:22;;;;;;;1.88;1.33;;;;;;;;;;4949488;28;99951;-74
2023/07/27 09:27:48;;;;;;;;;;;;;;;;;;4948903;28;100386;-72
2023/07/27 09:30:16;;;;;;;2.80;1.50;;;;;;;;;;4971061;28;127493;-74
2023/07/27 09:32:46;;;;;;;1.48;1.38;;;;;;;;;;4952275;28;98752;-72
2023/07/27 09:35:16;;;;;;;2.13;1.65;;;;;;;;;;4952447;28;98881;-73
2023/07/27 09:37:43;;;;;;;2.00;1.90;;;;;;;;;;4953045;28;98830;-75
2023/07/27 09:40:14;;;;;;;2.00;1.90;;;;;;;;;;4952308;28;99936;-75
2023/07/27 09:42:40;;;;;;;;;;;;;;;;;;4953209;28;99508;-72
2023/07/27 09:45:06;;;;;;;2.45;1.92;;;;;;;;;;4951570;28;130983;-74
2023/07/27 09:47:33;;;;;;;2.42;2.22;;;;;;;;;;4947905;28;98669;-75
2023/07/27 09:50:01;;;;;;;2.45;2.25;;;;;;;;;;4952177;28;99398;-75
2023/07/27 09:52:29;;;;;;;2.33;1.95;;;;;;;;;;4952145;28;99473;-76
2023/07/27 09:54:56;;;;;;;4.47;2.00;;;;;;;;;;4948664;28;100013;-74
2023/07/27 09:57:24;;;;;;;2.05;1.95;;;;;;;;;;4950174;28;99352;-74
2023/07/27 09:59:51;;;;;;;2.17;2.03;;;;;;;;;;4945885;28;100053;-74
2023/07/27 10:02:20;;;;;;;2.38;2.28;;;;;;;;;;4949342;28;101088;-73
2023/07/27 10:04:56;;;;;;;2.92;2.63;;;;;;;;;;4952080;28;99873;-72
2023/07/27 10:07:25;;;;;;;4.82;2.83;;;;;;;;;;4952475;28;98519;-73
2023/07/27 10:10:15;;;;;;;4.03;3.20;;;;;;;;;;4949296;28;99462;-72
2023/07/27 10:12:42;;;;;;;3.85;3.00;;;;;;;;;;4951245;28;100465;-72
2023/07/27 10:15:19;;;;;;;5.97;3.20;;;;;;;;;;4980354;28;98857;-73
2023/07/27 10:17:48;;;;;;;3.75;3.00;;;;;;;;;;4984562;28;99465;-73
2023/07/27 10:20:24;;;;;;;3.13;2.93;;;;;;;;;;4986139;28;98648;-73
2023/07/27 10:22:52;;;;;;;5.57;3.38;;;;;;;;;;4990183;28;99185;-73
2023/07/27 10:25:19;;;;;;;4.47;3.45;;;;;;;;;;4991160;28;99523;-73
2023/07/27 10:27:53;;;;;;;3.47;3.17;;;;;;;;;;4989320;28;99376;-73
2023/07/27 10:30:21;;;;;;;5.45;3.75;;;;;;;;;;4990354;28;98510;-73
2023/07/27 10:33:06;;;;;;;4.72;3.30;;;;;;;;;;4989929;28;99483;-73
2023/07/27 10:35:52;;;;;;;2.70;2.50;;;;;;;;;;4989476;28;100653;-74
2023/07/27 10:38:20;;;;;;;3.33;3.03;;;;;;;;;;4989989;28;100900;-73
2023/07/27 10:40:46;;;;;;;3.53;2.75;;;;;;;;;;4988332;28;99565;-73
2023/07/27 10:43:12;;;;;;;6.68;3.80;;;;;;;;;;4990517;28;99491;-73
2023/07/27 10:45:54;;;;;;;7.07;4.50;;;;;;;;;;4988749;28;99666;-73
2023/07/27 10:48:20;;;;;;;3.60;3.30;;;;;;;;;;4989664;28;98611;-73
2023/07/27 10:50:47;;;;;;;2.95;2.75;;;;;;;;;;4988428;28;99044;-73
2023/07/27 10:53:14;;;;;;;2.70;2.50;;;;;;;;;;4989425;28;98788;-73
2023/07/27 10:55:41;;;;;;;2.60;2.40;;;;;;;;;;4973416;28;98541;-73
2023/07/27 10:58:09;;;;;;;2.67;2.20;;;;;;;;;;4993562;28;99194;-74
2023/07/27 11:00:36;;;;;;;3.15;2.28;;;;;;;;;;4988277;28;99389;-74
2023/07/27 11:03:03;;;;;;;2.90;2.17;;;;;;;;;;4990721;28;98741;-73
2023/07/27 11:05:29;;;;;;;3.50;2.70;;;;;;;;;;4990847;28;100676;-73
2023/07/27 11:08:02;;;;;;;2.92;2.70;;;;;;;;;;4990742;28;98507;-73
2023/07/27 11:10:29;;;;;;;2.88;2.60;;;;;;;;;;4988303;28;99577;-73
2023/07/27 11:12:57;;;;;;;3.22;2.90;;;;;;;;;;4989500;28;99454;-74
2023/07/27 11:15:27;;;;;;;4.03;2.92;;;;;;;;;;4990561;28;98643;-73
2023/07/27 11:17:54;;;;;;;3.50;3.20;;;;;;;;;;4989366;28;99228;-73
2023/07/27 11:20:22;;;;;;;3.20;2.90;;;;;;;;;;4989729;28;100522;-73
2023/07/27 11:22:49;;;;;;;4.63;2.78;;;;;;;;;;4988533;28;100300;-73
2023/07/27 11:25:16;;;;;;;2.75;2.30;;;;;;;;;;4988664;28;100665;-73
2023/07/27 11:27:42;;;;;;;2.90;2.13;;;;;;;;;;4991125;28;98874;-73
2023/07/27 11:30:12;;;;;;;2.10;2.00;;;;;;;;;;4977164;28;99124;-73
2023/07/27 11:32:38;;;;;;;3.38;2.38;;;;;;;;;;4968361;28;99511;-74
2023/07/27 11:35:05;;;;;;;2.38;2.17;;;;;;;;;;4982290;28;98624;-74
2023/07/27 11:37:32;;;;;;;3.05;2.30;;;;;;;;;;4990139;28;99480;-74
2023/07/27 11:39:58;;;;;;;1.95;1.85;;;;;;;;;;4989508;28;100458;-73
2023/07/27 11:42:25;;;;;;;2.00;1.90;;;;;;;;;;4988811;28;98265;-74
2023/07/27 11:44:51;;;;;;;2.03;1.92;;;;;;;;;;4987901;28;99480;-74
2023/07/27 11:47:18;;;;;;;1.30;1.30;;;;;;;;;;4989665;28;98738;-74
2023/07/27 11:49:44;;;;;;;2.80;1.67;;;;;;;;;;4989597;28;99205;-74
2023/07/27 11:52:11;;;;;;;1.38;1.27;;;;;;;;;;4988679;28;99666;-74
2023/07/27 11:54:38;;;;;;;1.30;1.30;;;;;;;;;;4986556;28;98618;-74
2023/07/27 11:57:04;;;;;;;1.48;1.40;;;;;;;;;;4978546;28;99486;-74
2023/07/27 11:59:31;;;;;;;1.65;1.55;;;;;;;;;;4977858;28;99495;-73
2023/07/27 12:01:58;;;;;;;2.25;2.10;;;;;;;;;;4988842;28;100210;-74
2023/07/27 12:04:25;;;;;;;2.97;1.92;;;;;;;;;;4991905;28;99153;-73
2023/07/27 12:06:54;;;;;;;2.10;2.00;;;;;;;;;;4972649;28;97813;-73
2023/07/27 12:09:21;;;;;;;1.70;1.60;;;;;;;;;;4988437;28;99501;-73
2023/07/27 12:11:47;;;;;;;1.50;1.40;;;;;;;;;;4988439;28;99495;-73
2023/07/27 12:14:18;;;;;;;1.38;1.30;;;;;;;;;;4987726;28;100357;-73
2023/07/27 12:16:45;;;;;;;3.85;1.48;;;;;;;;;;4976871;28;99895;-73
2023/07/27 12:19:15;;;;;;;0.90;0.90;;;;;;;;;;4988307;28;100205;-73
2023/07/27 12:21:47;;;;;;;2.53;1.00;;;;;;;;;;4988239;28;98674;-73
2023/07/27 12:24:14;;;;;;;1.15;0.70;;;;;;;;;;4988847;28;101154;-73
2023/07/27 12:26:44;;;;;;;0.75;0.60;;;;;;;;;;4990760;28;100231;-73
2023/07/27 12:29:14;;;;;;;4.18;0.85;;;;;;;;;;4989244;28;98960;-74
2023/07/27 12:31:43;;;;;;;1.17;0.90;;;;;;;;;;4988019;28;100184;-73
2023/07/27 12:34:13;;;;;;;0.70;0.70;;;;;;;;;;4986938;28;98920;-73
2023/07/27 12:36:43;;;;;;;;;;;;;;;;;;4987186;28;99537;-70
2023/07/27 12:39:29;;;;;;;0.80;0.80;;;;;;;;;;4989441;28;101319;-73
2023/07/27 12:41:56;;;;;;;1.10;0.73;;;;;;;;;;4988815;28;98761;-73
2023/07/27 12:44:25;;;;;;;1.00;0.77;;;;;;;;;;4990703;28;98930;-73
2023/07/27 12:46:51;;;;;;;3.15;1.00;;;;;;;;;;4992398;28;99452;-73
2023/07/27 12:49:18;;;;;;;1.15;0.98;;;;;;;;;;4995376;28;98561;-74
2023/07/27 12:51:44;;;;;;;1.02;0.50;;;;;;;;;;4992107;28;100525;-73
2023/07/27 12:54:11;;;;;;;0.88;0.60;;;;;;;;;;4988227;28;98876;-73
2023/07/27 12:56:37;;;;;;;1.63;0.70;;;;;;;;;;4992646;28;99470;-74
2023/07/27 12:59:03;;;;;;;2.13;0.80;;;;;;;;;;4992098;28;100536;-74
2023/07/27 13:01:30;;;;;;;1.65;0.73;;;;;;;;;;4991937;28;98619;-74
2023/07/27 13:03:56;;;;;;;0.90;0.90;;;;;;;;;;4990208;28;99381;-72
2023/07/27 13:06:23;;;;;;;1.77;1.00;;;;;;;;;;4972406;28;99618;-73
2023/07/27 13:08:49;;;;;;;0.80;0.80;;;;;;;;;;4962609;28;99276;-73
2023/07/27 13:11:16;;;;;;;1.90;1.10;;;;;;;;;;4991615;28;100662;-73
2023/07/27 13:13:42;;;;;;;3.40;1.20;;;;;;;;;;4983147;28;99941;-73
2023/07/27 13:16:08;;;;;;;1.65;1.30;;;;;;;;;;4988862;28;99108;-73
2023/07/27 13:18:35;;;;;;;2.25;1.02;;;;;;;;;;4992257;28;99783;-73
2023/07/27 13:21:01;;;;;;;1.73;1.00;;;;;;;;;;4989749;28;97785;-73
2023/07/27 13:23:27;;;;;;;1.48;0.90;;;;;;;;;;4993348;28;102638;-73
2023/07/27 13:25:54;;;;;;;1.08;0.98;;;;;;;;;;4994059;28;102480;-73
2023/07/27 13:28:20;;;;;;;4.45;1.27;;;;;;;;;;4987447;28;99302;-74
2023/07/27 13:30:46;;;;;;;3.63;1.20;;;;;;;;;;4992884;28;100039;-73
2023/07/27 13:33:14;;;;;;;1.88;1.02;;;;;;;;;;4990381;28;98739;-72
2023/07/27 13:35:40;;;;;;;2.13;1.10;;;;;;;;;;4991516;28;99136;-73
2023/07/27 13:38:06;;;;;;;1.58;1.02;;;;;;;;;;4972630;28;99490;-73
2023/07/27 13:40:33;;;;;;;1.65;1.00;;;;;;;;;;4989763;28;98638;-73
2023/07/27 13:42:59;;;;;;;4.03;1.00;;;;;;;;;;4990964;28;100161;-72
2023/07/27 13:45:25;;;;;;;2.38;1.52;;;;;;;;;;4991692;28;99843;-72
2023/07/27 13:47:52;;;;;;;0.90;0.90;;;;;;;;;;4990721;28;98931;-72
2023/07/27 13:50:34;;;;;;;4.05;1.40;;;;;;;;;;4991826;28;99117;-72
2023/07/27 13:53:01;;;;;;;2.28;1.50;;;;;;;;;;4989547;28;100457;-73
2023/07/27 13:55:28;;;;;;;2.40;1.52;;;;;;;;;;4990411;28;99965;-73
2023/07/27 13:57:54;;;;;;;3.20;2.13;;;;;;;;;;4988647;28;99284;-72
2023/07/27 14:00:21;;;;;;;9.40;2.90;;;;;;;;;;4988550;28;98790;-72
2023/07/27 14:02:47;;;;;;;4.97;2.55;;;;;;;;;;4989363;28;99636;-73
2023/07/27 14:05:14;;;;;;;7.47;2.90;;;;;;;;;;4991240;28;99568;-73
2023/07/27 14:07:41;;;;;;;7.93;3.22;;;;;;;;;;4989793;28;98725;-73
2023/07/27 14:10:08;;;;;;;8.27;3.55;;;;;;;;;;4991037;28;99202;-73
2023/07/27 14:12:34;;;;;;;11.02;3.45;;;;;;;;;;4973231;28;102459;-73
2023/07/27 14:15:01;;;;;;;8.98;3.83;;;;;;;;;;4994177;28;98671;-73
2023/07/27 14:17:27;;;;;;;7.68;3.90;;;;;;;;;;4988826;28;100584;-73
2023/07/27 14:19:53;;;;;;;10.50;3.90;;;;;;;;;;4989229;28;98548;-72
2023/07/27 14:22:21;;;;;;;9.15;3.45;;;;;;;;;;4991556;28;99206;-73
2023/07/27 14:24:47;;;;;;;11.68;3.70;;;;;;;;;;4990489;28;99704;-73
2023/07/27 14:27:13;;;;;;;13.02;3.60;;;;;;;;;;4990221;28;98740;-73
2023/07/27 14:29:40;;;;;;;3.83;2.28;;;;;;;;;;4990587;28;99158;-72
2023/07/27 14:32:08;;;;;;;7.63;3.05;;;;;;;;;;4987935;28;99471;-73
2023/07/27 14:34:34;;;;;;;6.47;2.80;;;;;;;;;;4988465;28;97947;-73
2023/07/27 14:37:01;;;;;;;6.88;2.80;;;;;;;;;;4992706;28;98570;-72
2023/07/27 14:39:28;;;;;;;10.25;3.50;;;;;;;;;;4992211;28;98843;-72